Time;durP1;ratioP1;P1;durP2;ratioP2;P2;SDS_P1;SDS_P2;PMS_P1;PMS_P2;Temp;Humidity;BMP_temperature;BMP_pressure;BME280_temperature;BME280_humidity;BME280_pressure;Samples;Min_cycle;Max_cycle;Signal;HPM_P1;HPM_P2
2023/01/09 00:01:21;;;;;;;2.17;0.80;;;;;;;19.14;43.68;99322.25;5003375;28;20037;-68
2023/01/09 00:03:46;;;;;;;1.70;0.60;;;;;;;19.11;43.77;99320.75;4993992;28;20048;-68
2023/01/09 00:06:11;;;;;;;2.25;0.52;;;;;;;19.11;43.83;99314.66;4986134;28;20419;-66
2023/01/09 00:08:37;;;;;;;1.55;0.65;;;;;;;19.08;43.84;99313.16;4997176;28;20459;-68
2023/01/09 00:11:02;;;;;;;1.73;0.60;;;;;;;19.09;43.86;99320.09;4998670;28;20029;-68
2023/01/09 00:13:28;;;;;;;2.30;0.60;;;;;;;19.09;43.77;99332.44;4996433;28;20034;-67
2023/01/09 00:15:53;;;;;;;1.52;0.70;;;;;;;19.07;43.73;99331.81;4991938;28;20049;-70
2023/01/09 00:18:18;;;;;;;1.88;0.68;;;;;;;19.05;43.76;99331.16;4995658;28;20033;-68
2023/01/09 00:20:43;;;;;;;1.87;0.60;;;;;;;19.02;43.61;99329.66;4987924;28;20065;-67
2023/01/09 00:23:09;;;;;;;1.08;0.60;;;;;;;18.99;43.80;99332.63;4998226;28;20267;-69
2023/01/09 00:25:34;;;;;;;1.85;0.68;;;;;;;19.01;43.65;99342.03;4994553;28;20097;-68
2023/01/09 00:28:00;;;;;;;1.17;0.52;;;;;;;19.01;43.42;99333.31;4984635;28;20042;-67
2023/01/09 00:30:25;;;;;;;2.78;0.70;;;;;;;18.99;43.31;99338.75;4998162;28;20030;-67
2023/01/09 00:32:53;;;;;;;2.03;0.73;;;;;;;18.95;43.54;99336.63;4989788;28;20135;-67
2023/01/09 00:35:20;;;;;;;1.20;0.60;;;;;;;18.97;43.30;99340.72;4983941;28;20031;-69
2023/01/09 00:37:46;;;;;;;1.13;0.55;;;;;;;18.92;43.23;99339.59;4987156;28;20049;-67
2023/01/09 00:40:13;;;;;;;1.20;0.70;;;;;;;18.94;43.34;99346.31;4991252;28;20042;-67
2023/01/09 00:42:38;;;;;;;2.40;0.80;;;;;;;18.93;43.24;99349.13;4983635;28;20475;-67
2023/01/09 00:45:10;;;;;;;2.30;0.73;;;;;;;18.92;43.33;99337.75;4989149;28;20045;-68
2023/01/09 00:47:39;;;;;;;2.63;0.65;;;;;;;18.88;43.17;99338.25;4993391;28;20049;-68
2023/01/09 00:50:10;;;;;;;2.08;0.70;;;;;;;18.90;43.08;99344.19;4986237;28;20030;-68
2023/01/09 00:52:37;;;;;;;1.05;0.55;;;;;;;18.89;42.96;99343.38;4992418;28;20045;-67
2023/01/09 00:55:03;;;;;;;1.20;0.60;;;;;;;18.89;43.06;99348.66;4990633;28;20030;-68
2023/01/09 00:57:29;;;;;;;1.15;0.52;;;;;;;18.85;43.10;99347.34;5000211;28;20520;-67
2023/01/09 00:59:55;;;;;;;2.17;0.68;;;;;;;18.83;42.90;99347.47;4993423;28;20063;-67
2023/01/09 01:02:21;;;;;;;1.42;0.60;;;;;;;18.83;43.14;99344.00;4993096;28;20116;-65
2023/01/09 01:07:40;;;;;;;1.50;0.50;;;;;;;18.80;43.11;99342.53;4992336;28;20065;-67
2023/01/09 01:10:11;;;;;;;1.85;0.70;;;;;;;18.81;42.99;99340.72;4991080;28;20060;-69
2023/01/09 01:12:37;;;;;;;1.08;0.55;;;;;;;18.78;43.05;99347.13;4993946;28;20380;-67
2023/01/09 01:15:04;;;;;;;0.98;0.50;;;;;;;18.81;42.96;99351.25;4990907;28;20133;-68
2023/01/09 01:17:29;;;;;;;1.83;0.63;;;;;;;18.76;42.65;99343.03;4994941;28;20394;-70
2023/01/09 01:19:55;;;;;;;1.08;0.50;;;;;;;18.75;42.88;99347.44;4991305;28;20026;-68
2023/01/09 01:22:20;;;;;;;1.40;0.57;;;;;;;18.78;42.74;99354.22;4996545;28;20049;-69
2023/01/09 01:24:45;;;;;;;1.83;0.70;;;;;;;18.76;42.59;99356.22;4995302;28;20037;-69
2023/01/09 01:27:11;;;;;;;1.02;0.50;;;;;;;18.77;42.74;99355.22;4991791;28;20525;-70
2023/01/09 01:29:36;;;;;;;1.77;0.50;;;;;;;18.76;42.67;99362.31;4992711;28;20040;-67
2023/01/09 01:32:01;;;;;;;1.90;0.60;;;;;;;18.68;42.52;99352.56;4995950;28;20069;-67
2023/01/09 01:34:28;;;;;;;1.63;0.70;;;;;;;18.73;42.77;99360.00;4990902;28;20051;-68
2023/01/09 01:36:53;;;;;;;0.80;0.50;;;;;;;18.72;42.57;99371.53;4992101;28;20119;-68
2023/01/09 01:39:18;;;;;;;0.98;0.50;;;;;;;18.70;42.42;99365.59;4996453;28;20026;-67
2023/01/09 01:41:44;;;;;;;1.30;0.57;;;;;;;18.70;42.41;99368.25;4998142;28;20052;-66
2023/01/09 01:44:46;;;;;;;1.23;0.60;;;;;;;18.70;42.51;99373.53;4994769;28;20070;-69
2023/01/09 01:47:16;;;;;;;2.53;0.70;;;;;;;18.64;42.27;99371.53;4994050;28;20046;-68
2023/01/09 01:49:42;;;;;;;2.10;0.70;;;;;;;18.64;42.34;99379.44;4998671;28;20805;-67
2023/01/09 01:52:07;;;;;;;1.20;0.60;;;;;;;18.65;42.23;99373.19;4991376;28;20824;-65
2023/01/09 01:54:32;;;;;;;2.38;0.80;;;;;;;18.63;42.40;99372.53;4998319;28;20843;-67
2023/01/09 01:57:03;;;;;;;2.25;0.65;;;;;;;18.61;42.28;99372.69;5004871;28;20030;-65
2023/01/09 01:59:39;;;;;;;1.33;0.60;;;;;;;18.60;42.29;99371.03;4986825;28;20026;-66
2023/01/09 02:02:05;;;;;;;1.90;0.70;;;;;;;18.63;42.32;99375.19;4993685;28;20041;-69
2023/01/09 02:04:33;;;;;;;2.67;0.90;;;;;;;18.59;42.22;99373.84;4986788;28;20027;-66
2023/01/09 02:07:01;;;;;;;1.85;0.60;;;;;;;18.58;42.24;99385.38;4987198;28;20049;-70
2023/01/09 02:09:26;;;;;;;2.15;0.70;;;;;;;18.57;42.12;99381.91;4999968;28;20042;-66
2023/01/09 02:11:55;;;;;;;1.08;0.50;;;;;;;18.58;42.24;99380.94;4994512;28;20065;-68
2023/01/09 02:14:25;;;;;;;2.33;0.85;;;;;;;18.58;42.10;99378.31;4995180;28;20038;-68
2023/01/09 02:17:20;;;;;;;1.45;0.50;;;;;;;18.55;42.22;99378.63;4997067;28;20200;-68
2023/01/09 02:20:07;;;;;;;1.70;0.93;;;;;;;18.58;42.10;99380.94;4986132;28;20053;-67
2023/01/09 02:22:46;;;;;;;2.85;0.88;;;;;;;18.58;42.10;99372.19;4999885;28;20034;-69
2023/01/09 02:25:56;;;;;;;1.52;0.65;;;;;;;18.58;42.01;99375.66;4991951;28;20041;-68
2023/01/09 02:28:34;;;;;;;1.35;0.57;;;;;;;18.54;42.23;99371.69;4973208;28;20117;-68
2023/01/09 02:31:22;;;;;;;1.73;0.65;;;;;;;18.57;42.14;99370.56;4970830;28;20034;-68
2023/01/09 02:34:25;;;;;;;1.83;0.60;;;;;;;18.56;42.21;99371.53;4983454;28;20046;-66
2023/01/09 02:37:14;;;;;;;1.58;0.60;;;;;;;18.55;41.96;99370.72;4981035;28;20038;-67
2023/01/09 02:39:51;;;;;;;1.42;0.60;;;;;;;18.51;42.05;99365.91;4993645;28;20030;-65
2023/01/09 02:42:24;;;;;;;1.77;0.65;;;;;;;18.53;41.80;99366.56;4991659;28;20034;-67
2023/01/09 02:44:49;;;;;;;1.38;0.60;;;;;;;18.48;42.07;99360.00;4994541;28;20483;-68
2023/01/09 02:47:15;;;;;;;1.70;0.63;;;;;;;18.51;41.77;99368.56;4993508;28;20038;-68
2023/01/09 02:49:45;;;;;;;1.80;0.68;;;;;;;18.49;41.80;99366.09;4990762;28;20065;-68
2023/01/09 02:52:35;;;;;;;1.58;0.65;;;;;;;18.48;41.85;99365.28;4991245;28;20030;-69
2023/01/09 02:55:30;;;;;;;2.47;0.70;;;;;;;18.49;41.92;99358.97;4992675;28;20394;-68
2023/01/09 02:58:10;;;;;;;1.95;0.70;;;;;;;18.49;41.95;99360.81;4991345;28;20041;-70
2023/01/09 03:00:40;;;;;;;1.73;0.65;;;;;;;18.47;41.57;99345.13;4992129;28;20038;-67
2023/01/09 03:03:18;;;;;;;2.70;0.60;;;;;;;18.46;41.68;99348.75;4996642;28;20084;-67
2023/01/09 03:06:02;;;;;;;2.63;0.77;;;;;;;18.46;41.69;99346.13;4995065;28;21046;-68
2023/01/09 03:08:39;;;;;;;1.55;0.50;;;;;;;18.45;41.81;99343.66;4994925;28;20073;-65
2023/01/09 03:11:07;;;;;;;3.40;1.02;;;;;;;18.45;41.80;99344.50;4993256;28;20763;-68
2023/01/09 03:13:40;;;;;;;1.30;0.60;;;;;;;18.43;41.95;99343.81;4995516;28;20034;-69
2023/01/09 03:16:08;;;;;;;1.95;0.68;;;;;;;18.43;42.11;99343.00;4995819;28;20092;-69
2023/01/09 03:18:35;;;;;;;1.40;0.65;;;;;;;18.42;41.94;99358.00;4994419;28;20930;-68
2023/01/09 03:21:03;;;;;;;1.80;0.70;;;;;;;18.40;41.58;99351.22;5003314;28;20033;-67
2023/01/09 03:23:48;;;;;;;1.77;0.95;;;;;;;18.41;41.74;99361.63;4991939;28;20042;-67
2023/01/09 03:26:13;;;;;;;1.80;0.70;;;;;;;18.42;41.56;99360.63;4994112;28;20034;-67
2023/01/09 03:28:38;;;;;;;2.15;0.60;;;;;;;18.41;41.64;99366.88;4987502;28;20100;-68
2023/01/09 03:31:04;;;;;;;2.10;0.80;;;;;;;18.42;41.51;99367.72;4991584;28;20053;-69
2023/01/09 03:33:29;;;;;;;2.17;0.77;;;;;;;18.41;41.41;99369.53;4996963;28;20033;-67
2023/01/09 03:35:54;;;;;;;2.33;0.90;;;;;;;18.39;41.56;99362.75;4999329;28;20107;-68
2023/01/09 03:38:20;;;;;;;1.67;0.80;;;;;;;18.38;41.45;99353.22;4984471;28;20054;-67
2023/01/09 03:40:45;;;;;;;1.88;0.60;;;;;;;18.37;41.40;99356.81;4991327;28;20046;-68
2023/01/09 03:43:10;;;;;;;1.45;0.68;;;;;;;18.37;41.49;99357.63;4990865;28;20035;-68
2023/01/09 03:45:36;;;;;;;1.85;0.60;;;;;;;18.39;41.38;99360.13;4996668;28;20523;-67
2023/01/09 03:48:01;;;;;;;2.78;0.70;;;;;;;18.34;41.42;99362.41;4998479;28;20154;-68
2023/01/09 03:50:26;;;;;;;1.92;0.70;;;;;;;18.33;41.45;99361.59;4995073;28;20518;-68
2023/01/09 03:52:52;;;;;;;3.35;0.82;;;;;;;18.34;41.42;99363.25;4994759;28;20062;-66
2023/01/09 03:55:17;;;;;;;1.50;0.68;;;;;;;18.33;41.39;99360.78;4993387;28;20130;-66
2023/01/09 03:57:43;;;;;;;3.90;0.70;;;;;;;18.30;41.61;99360.09;4995519;28;20547;-66
2023/01/09 04:00:09;;;;;;;3.30;0.77;;;;;;;18.30;41.46;99362.75;4993291;28;20038;-66
2023/01/09 04:02:34;;;;;;;1.92;0.80;;;;;;;18.30;41.24;99361.94;4994495;28;20033;-69
2023/01/09 04:04:59;;;;;;;3.60;0.70;;;;;;;18.30;41.35;99361.94;4995531;28;20410;-68
2023/01/09 04:07:24;;;;;;;1.80;0.65;;;;;;;18.30;41.21;99360.09;5001502;28;20058;-67
2023/01/09 04:09:50;;;;;;;2.33;0.70;;;;;;;18.28;41.38;99363.91;5003188;28;20038;-66
2023/01/09 04:12:15;;;;;;;2.17;0.80;;;;;;;18.31;41.41;99360.94;5002170;28;20030;-68
2023/01/09 04:14:40;;;;;;;2.67;0.90;;;;;;;18.31;41.34;99363.59;4993506;28;20544;-68
2023/01/09 04:17:05;;;;;;;1.58;0.65;;;;;;;18.28;41.33;99362.09;4996303;28;20034;-67
2023/01/09 04:19:31;;;;;;;2.53;0.68;;;;;;;18.22;41.20;99351.38;4990662;28;20514;-68
2023/01/09 04:21:56;;;;;;;2.67;0.80;;;;;;;18.26;41.45;99356.16;4998646;28;20071;-68
2023/01/09 04:24:21;;;;;;;2.25;0.75;;;;;;;18.25;41.53;99353.69;4992074;28;20038;-69
2023/01/09 04:26:47;;;;;;;1.92;0.73;;;;;;;18.27;41.22;99354.34;4993883;28;20878;-66
2023/01/09 04:29:12;;;;;;;2.58;0.80;;;;;;;18.26;41.39;99364.06;5003996;28;20034;-66
2023/01/09 04:31:37;;;;;;;1.67;0.73;;;;;;;18.24;41.05;99357.28;4995920;28;20034;-65
2023/01/09 04:34:02;;;;;;;2.88;0.80;;;;;;;18.26;41.51;99360.59;4992422;28;20057;-65
2023/01/09 04:36:28;;;;;;;1.35;0.60;;;;;;;18.26;41.58;99363.22;5006496;28;20037;-67
2023/01/09 04:38:53;;;;;;;1.98;0.70;;;;;;;18.24;41.43;99359.94;4987980;28;20057;-67
2023/01/09 04:42:03;;;;;;;1.55;0.70;;;;;;;18.23;41.54;99356.47;4996929;28;20053;-66
2023/01/09 04:44:04;;;;;;;1.92;0.70;;;;;;;18.22;41.35;99362.72;4998574;28;20048;-67
2023/01/09 04:46:29;;;;;;;1.95;1.00;;;;;;;18.24;41.20;99363.38;4982995;28;20030;-69
2023/01/09 04:48:54;;;;;;;2.27;0.70;;;;;;;18.22;41.56;99361.91;4983615;28;20034;-67
2023/01/09 04:51:20;;;;;;;2.22;0.80;;;;;;;18.20;41.55;99358.59;4999226;28;20414;-68
2023/01/09 04:53:45;;;;;;;1.35;0.60;;;;;;;18.21;41.66;99368.97;4987894;28;20037;-69
2023/01/09 04:56:10;;;;;;;2.03;0.70;;;;;;;18.20;41.73;99362.06;4990145;28;20113;-67
2023/01/09 04:58:36;;;;;;;2.75;0.70;;;;;;;18.20;41.47;99362.06;4992192;28;20030;-67
2023/01/09 05:01:01;;;;;;;2.00;0.70;;;;;;;18.21;41.61;99360.25;4990580;28;20073;-67
2023/01/09 05:03:26;;;;;;;2.30;0.80;;;;;;;18.19;41.43;99356.97;4987670;28;20045;-65
2023/01/09 05:05:51;;;;;;;3.13;1.05;;;;;;;18.19;41.55;99359.59;4993763;28;20073;-67
2023/01/09 05:08:17;;;;;;;1.63;0.70;;;;;;;18.21;41.52;99360.25;4993147;28;20099;-67
2023/01/09 05:10:42;;;;;;;2.42;0.70;;;;;;;18.20;41.60;99361.22;5002228;28;20606;-65
2023/01/09 05:13:07;;;;;;;3.37;0.90;;;;;;;18.20;41.52;99358.59;5001024;28;20052;-66
2023/01/09 05:15:32;;;;;;;4.22;1.67;;;;;;;18.18;41.53;99355.28;4982990;28;20320;-69
2023/01/09 05:17:58;;;;;;;3.45;0.70;;;;;;;18.16;41.54;99352.81;4997417;28;20030;-68
2023/01/09 05:20:23;;;;;;;2.28;0.68;;;;;;;18.18;41.56;99358.75;4997021;28;20061;-67
2023/01/09 05:22:48;;;;;;;3.58;0.98;;;;;;;18.16;41.62;99354.63;5001927;28;20033;-67
2023/01/09 05:25:14;;;;;;;2.10;0.73;;;;;;;18.14;41.66;99344.25;4997574;28;20466;-67
2023/01/09 05:27:42;;;;;;;1.48;0.60;;;;;;;18.14;41.28;99349.53;5002162;28;20266;-68
2023/01/09 05:30:08;;;;;;;2.75;0.90;;;;;;;18.13;41.62;99343.44;4991767;28;20121;-69
2023/01/09 05:32:33;;;;;;;2.55;0.70;;;;;;;18.14;41.67;99344.25;4994298;28;20140;-68
2023/01/09 05:34:59;;;;;;;2.42;0.90;;;;;;;18.18;41.67;99357.94;4997163;28;20040;-68
2023/01/09 05:37:24;;;;;;;2.22;0.70;;;;;;;18.16;41.70;99355.47;4989851;28;20057;-69
2023/01/09 05:39:49;;;;;;;2.67;0.80;;;;;;;18.16;41.57;99350.19;4984654;28;20031;-68
2023/01/09 05:42:15;;;;;;;2.42;0.70;;;;;;;18.15;41.59;99343.28;4993816;28;20030;-68
2023/01/09 05:44:40;;;;;;;2.58;0.90;;;;;;;18.14;41.67;99338.97;5000722;28;20041;-66
2023/01/09 05:47:05;;;;;;;2.72;0.77;;;;;;;18.17;41.71;99345.75;4989369;28;20034;-67
2023/01/09 05:49:30;;;;;;;3.83;0.68;;;;;;;18.14;41.65;99341.63;4986639;28;20518;-69
2023/01/09 05:51:56;;;;;;;2.80;0.83;;;;;;;18.12;41.67;99338.31;4980673;28;20069;-67
2023/01/09 05:54:21;;;;;;;1.52;0.55;;;;;;;18.11;41.67;99329.56;4996722;28;20283;-68
2023/01/09 05:56:46;;;;;;;4.22;1.00;;;;;;;18.11;41.59;99332.22;4996336;28;20121;-67
2023/01/09 05:59:11;;;;;;;4.22;0.88;;;;;;;18.11;41.81;99334.84;5001647;28;20041;-69
2023/01/09 06:01:37;;;;;;;4.03;0.98;;;;;;;18.16;41.92;99337.00;4993914;28;20101;-69
2023/01/09 06:04:02;;;;;;;3.63;1.08;;;;;;;18.14;42.04;99328.44;4985423;28;20038;-68
2023/01/09 06:06:27;;;;;;;1.55;0.73;;;;;;;18.15;42.33;99327.47;4997491;28;20107;-64
2023/01/09 06:08:53;;;;;;;2.95;0.70;;;;;;;18.21;42.21;99337.34;4983582;28;20061;-67
2023/01/09 06:11:18;;;;;;;1.75;0.88;;;;;;;18.21;42.31;99320.69;4980435;28;20022;-66
2023/01/09 06:13:43;;;;;;;0.95;0.57;;;;;;;18.22;42.27;99325.81;4993845;28;20030;-68
2023/01/09 06:16:09;;;;;;;2.83;0.70;;;;;;;18.28;42.20;99329.63;4987595;28;20034;-67
2023/01/09 06:18:34;;;;;;;2.95;0.75;;;;;;;18.29;42.13;99320.72;4993978;28;20034;-68
2023/01/09 06:20:59;;;;;;;2.45;0.65;;;;;;;18.33;42.32;99329.97;5000932;28;20580;-69
2023/01/09 06:23:24;;;;;;;3.53;0.70;;;;;;;18.37;42.16;99335.72;5001186;28;20029;-67
2023/01/09 06:25:50;;;;;;;2.77;0.80;;;;;;;18.41;42.02;99334.44;4994292;28;20030;-68
2023/01/09 06:28:15;;;;;;;2.92;0.70;;;;;;;18.43;42.13;99332.44;4993250;28;20259;-67
2023/01/09 06:30:40;;;;;;;2.73;0.80;;;;;;;18.47;42.03;99333.78;4987482;28;20570;-66
2023/01/09 06:33:05;;;;;;;2.42;0.80;;;;;;;18.46;41.99;99330.28;4994483;28;20263;-67
2023/01/09 06:35:31;;;;;;;3.03;0.80;;;;;;;18.53;41.99;99340.19;4995471;28;20614;-68
2023/01/09 06:37:57;;;;;;;3.25;0.70;;;;;;;18.52;42.01;99342.00;4985900;28;20058;-66
2023/01/09 06:40:22;;;;;;;2.90;0.73;;;;;;;18.53;42.03;99340.19;5000028;28;20034;-69
2023/01/09 06:42:48;;;;;;;3.20;0.82;;;;;;;18.54;41.88;99349.78;4999363;28;20394;-67
2023/01/09 06:45:14;;;;;;;3.67;0.82;;;;;;;18.55;41.96;99349.59;4989418;28;20125;-66
2023/01/09 06:47:40;;;;;;;3.22;0.70;;;;;;;18.58;41.94;99344.00;5004742;28;20509;-69
2023/01/09 06:50:06;;;;;;;2.67;0.70;;;;;;;18.61;41.80;99356.03;5000457;28;20038;-68
2023/01/09 06:52:32;;;;;;;3.67;0.80;;;;;;;18.60;41.89;99339.38;4996530;28;20265;-68
2023/01/09 06:54:57;;;;;;;1.65;0.68;;;;;;;18.64;41.86;99345.16;4997571;28;20033;-68
2023/01/09 06:57:22;;;;;;;3.50;1.02;;;;;;;18.62;41.77;99345.31;4993937;28;20485;-68
2023/01/09 06:59:47;;;;;;;2.72;0.77;;;;;;;18.62;41.94;99342.66;4990750;28;20038;-67
2023/01/09 07:02:19;;;;;;;2.92;0.85;;;;;;;18.64;41.84;99348.63;4992605;28;20038;-67
2023/01/09 07:04:44;;;;;;;1.95;0.65;;;;;;;18.62;41.94;99350.59;4997162;28;20037;-69
2023/01/09 07:07:09;;;;;;;2.83;0.90;;;;;;;18.66;41.75;99365.13;5001883;28;20596;-69
2023/01/09 07:09:35;;;;;;;2.17;0.70;;;;;;;18.68;41.70;99367.59;5003168;28;20458;-68
2023/01/09 07:12:00;;;;;;;2.92;0.73;;;;;;;18.68;41.58;99372.88;5002028;28;20184;-71
2023/01/09 07:14:25;;;;;;;2.70;0.77;;;;;;;18.67;41.89;99369.41;5003184;28;20436;-67
2023/01/09 07:16:51;;;;;;;3.33;0.80;;;;;;;18.64;41.85;99372.38;4998017;28;20047;-67
2023/01/09 07:19:16;;;;;;;2.70;0.88;;;;;;;18.66;41.86;99383.59;4987281;28;20536;-68
2023/01/09 07:21:41;;;;;;;2.58;0.70;;;;;;;18.67;41.81;99379.97;4989803;28;20037;-67
2023/01/09 07:24:06;;;;;;;3.10;0.80;;;;;;;18.66;41.67;99396.78;5001479;28;20042;-67
2023/01/09 07:26:32;;;;;;;3.28;1.10;;;;;;;18.66;41.86;99398.59;4989369;28;20045;-71
2023/01/09 07:28:57;;;;;;;2.10;0.70;;;;;;;18.62;41.68;99392.81;4989599;28;20038;-69
2023/01/09 07:31:22;;;;;;;2.67;0.90;;;;;;;18.62;41.77;99394.63;4992834;28;20407;-66
2023/01/09 07:33:47;;;;;;;4.13;1.10;;;;;;;18.65;41.54;99412.78;5003705;28;20034;-68
2023/01/09 07:36:13;;;;;;;1.92;0.65;;;;;;;18.64;41.82;99408.47;4991235;28;20038;-68
2023/01/09 07:38:38;;;;;;;2.17;0.70;;;;;;;18.63;41.99;99409.47;5002222;28;20157;-68
2023/01/09 07:41:04;;;;;;;3.10;0.90;;;;;;;18.59;42.21;99413.41;5002098;28;20533;-70
2023/01/09 07:43:29;;;;;;;3.60;1.00;;;;;;;18.62;42.18;99410.47;4998467;28;20122;-69
2023/01/09 07:45:54;;;;;;;2.38;0.75;;;;;;;18.60;42.50;99423.81;4999055;28;20152;-71
2023/01/09 07:48:20;;;;;;;4.13;1.00;;;;;;;18.63;42.49;99417.41;5000287;28;20030;-70
2023/01/09 07:50:45;;;;;;;3.88;1.63;;;;;;;18.60;42.77;99425.63;4988217;28;20466;-69
2023/01/09 07:53:10;;;;;;;5.80;1.17;;;;;;;18.62;42.69;99436.84;4997594;28;20065;-69
2023/01/09 07:55:35;;;;;;;5.00;1.20;;;;;;;18.64;42.68;99429.59;4993628;28;20038;-67
2023/01/09 07:58:01;;;;;;;3.90;0.80;;;;;;;18.63;42.83;99433.22;4992040;28;20034;-68
2023/01/09 08:00:26;;;;;;;2.15;0.80;;;;;;;18.63;42.84;99435.88;4992808;28;20034;-68
2023/01/09 08:02:52;;;;;;;2.92;0.90;;;;;;;18.60;43.09;99434.38;4986909;28;20038;-65
2023/01/09 08:05:18;;;;;;;4.07;1.20;;;;;;;18.64;42.89;99448.91;4997816;28;20041;-67
2023/01/09 08:07:43;;;;;;;3.45;1.00;;;;;;;18.60;43.05;99455.47;4995046;28;20398;-68
2023/01/09 08:10:10;;;;;;;3.08;0.70;;;;;;;18.62;43.01;99457.94;4986396;28;20390;-68
2023/01/09 08:12:35;;;;;;;2.83;0.90;;;;;;;18.65;43.17;99462.91;5001359;28;20040;-68
2023/01/09 08:15:01;;;;;;;2.95;0.77;;;;;;;18.66;43.16;99467.22;4991396;28;20026;-71
2023/01/09 08:17:26;;;;;;;2.67;0.98;;;;;;;18.67;43.36;99468.84;5003113;28;20110;-72
2023/01/09 08:19:51;;;;;;;3.47;0.80;;;;;;;18.69;43.35;99474.78;4991894;28;20048;-70
2023/01/09 08:22:17;;;;;;;3.33;0.80;;;;;;;18.68;43.55;99473.16;4997916;28;20045;-70
2023/01/09 08:24:42;;;;;;;1.43;0.50;;;;;;;18.68;43.29;99479.25;4992163;28;20069;-69
2023/01/09 08:27:07;;;;;;;3.17;0.75;;;;;;;18.72;43.52;99484.19;4990078;28;20878;-69
2023/01/09 08:29:33;;;;;;;3.42;0.80;;;;;;;18.70;43.49;99480.91;4992458;28;20057;-74
2023/01/09 08:31:58;;;;;;;3.75;0.90;;;;;;;18.75;43.09;99489.97;4992368;28;20038;-70
2023/01/09 08:34:23;;;;;;;3.35;0.90;;;;;;;18.74;43.36;99501.53;4994022;28;20048;-69
2023/01/09 08:36:48;;;;;;;5.20;1.17;;;;;;;18.73;43.25;99504.34;4995535;28;20058;-68
2023/01/09 08:39:14;;;;;;;3.75;0.93;;;;;;;18.80;43.08;99518.53;5001768;28;20026;-68
2023/01/09 08:47:07;;;;;;;4.13;0.90;;;;;;;18.85;43.35;99529.47;4991401;28;20041;-69
2023/01/09 08:49:34;;;;;;;3.80;0.95;;;;;;;18.85;43.45;99526.84;4998963;28;20030;-68
2023/01/09 08:52:00;;;;;;;3.40;1.00;;;;;;;18.80;43.46;99522.00;4985339;28;20057;-67
2023/01/09 08:54:25;;;;;;;3.72;0.90;;;;;;;18.83;43.16;99542.81;4991377;28;20084;-69
2023/01/09 08:56:50;;;;;;;4.07;1.02;;;;;;;18.80;43.26;99553.69;4997056;28;20478;-67
2023/01/09 08:59:16;;;;;;;2.75;0.90;;;;;;;18.80;43.31;99556.31;4993726;28;20044;-70
2023/01/09 09:01:41;;;;;;;1.90;0.80;;;;;;;18.79;43.01;99559.13;5002572;28;20084;-70
2023/01/09 09:04:06;;;;;;;3.38;0.85;;;;;;;18.75;43.08;99558.59;4994328;28;20049;-70
2023/01/09 09:06:33;;;;;;;3.40;0.93;;;;;;;18.79;43.07;99564.41;4998089;28;20046;-69
2023/01/09 09:09:02;;;;;;;2.42;0.90;;;;;;;18.75;43.11;99569.16;4987328;28;20038;-68
2023/01/09 09:11:29;;;;;;;2.97;1.00;;;;;;;18.76;42.96;99578.72;5000449;28;20034;-68
2023/01/09 09:13:54;;;;;;;4.55;0.90;;;;;;;18.80;42.95;99589.78;4993374;28;20057;-67
2023/01/09 09:16:19;;;;;;;3.50;0.80;;;;;;;18.82;42.86;99579.91;4995874;28;20474;-67
2023/01/09 09:18:45;;;;;;;2.85;0.80;;;;;;;18.85;42.77;99595.47;4989492;28;20025;-70
2023/01/09 09:21:10;;;;;;;4.43;0.88;;;;;;;18.87;42.85;99597.91;4987251;28;20030;-68
2023/01/09 09:23:35;;;;;;;4.15;0.88;;;;;;;18.79;42.78;99604.00;4987920;28;20585;-70
2023/01/09 09:26:01;;;;;;;1.98;0.75;;;;;;;18.71;43.02;99594.22;5001763;28;20049;-68
2023/01/09 09:28:26;;;;;;;4.10;0.73;;;;;;;18.77;43.09;99609.44;4987897;28;20944;-70
2023/01/09 09:30:51;;;;;;;3.80;0.88;;;;;;;18.77;43.15;99614.69;4989200;28;20269;-67
2023/01/09 09:33:16;;;;;;;3.00;0.80;;;;;;;18.80;43.01;99624.94;4991251;28;20046;-68
2023/01/09 09:35:42;;;;;;;2.95;0.75;;;;;;;18.78;43.05;99621.63;4987737;28;20129;-68
2023/01/09 09:38:07;;;;;;;2.45;0.70;;;;;;;18.78;43.21;99624.25;4991644;28;20050;-68
2023/01/09 09:41:00;;;;;;;2.30;0.80;;;;;;;18.87;43.00;99642.78;4998808;28;20042;-69
2023/01/09 09:46:45;;;;;;;2.20;0.63;;;;;;;18.88;43.07;99652.38;4994625;28;20087;-70
2023/01/09 09:49:20;;;;;;;2.85;0.90;;;;;;;18.91;43.17;99652.06;4991291;28;20076;-73
2023/01/09 09:52:15;;;;;;;3.50;1.10;;;;;;;18.96;43.13;99661.19;4992343;28;20126;-70
2023/01/09 09:54:45;;;;;;;3.13;0.80;;;;;;;18.94;42.98;99662.31;4988969;28;20586;-67
2023/01/09 09:57:16;;;;;;;4.10;1.00;;;;;;;18.90;43.14;99675.00;4983909;28;20114;-70
2023/01/09 09:59:43;;;;;;;2.92;0.90;;;;;;;18.90;43.06;99680.28;4992568;28;20521;-68
2023/01/09 10:02:18;;;;;;;4.82;0.98;;;;;;;18.97;43.10;99686.56;4993450;28;20084;-67
2023/01/09 10:04:47;;;;;;;2.88;0.70;;;;;;;18.95;43.39;99693.00;5000839;28;20053;-68
2023/01/09 10:07:30;;;;;;;6.38;1.00;;;;;;;18.96;43.32;99700.78;4997539;28;20829;-68
2023/01/09 10:09:59;;;;;;;3.25;1.05;;;;;;;18.94;43.32;99704.56;4981602;28;20034;-68
2023/01/09 10:12:28;;;;;;;2.03;0.63;;;;;;;18.94;43.26;99705.38;4980982;28;20487;-68
2023/01/09 10:14:58;;;;;;;3.55;0.90;;;;;;;18.92;43.38;99706.53;4996973;28;20038;-68
2023/01/09 10:17:58;;;;;;;2.85;0.95;;;;;;;18.91;43.29;99696.94;4991961;28;20037;-69
2023/01/09 10:20:24;;;;;;;1.88;0.63;;;;;;;18.91;43.27;99712.78;4985427;28;21110;-67
2023/01/09 10:23:09;;;;;;;2.27;0.60;;;;;;;18.89;43.25;99718.22;4986407;28;20062;-67
2023/01/09 10:25:49;;;;;;;3.03;1.00;;;;;;;18.88;43.21;99723.66;5000106;28;21097;-68
2023/01/09 10:28:41;;;;;;;3.90;1.00;;;;;;;18.85;43.36;99730.09;4982934;28;20121;-67
2023/01/09 10:31:14;;;;;;;3.03;0.90;;;;;;;18.87;43.37;99737.81;4986928;28;20041;-69
2023/01/09 10:34:00;;;;;;;1.88;0.65;;;;;;;18.81;43.19;99726.88;4997370;28;20038;-67
2023/01/09 10:37:00;;;;;;;3.15;1.00;;;;;;;18.84;43.44;99739.81;4992229;28;20034;-69
2023/01/09 10:39:45;;;;;;;3.95;0.75;;;;;;;18.89;43.23;99738.53;4986883;28;20042;-69
2023/01/09 10:42:19;;;;;;;3.33;0.90;;;;;;;18.78;43.32;99740.38;4986608;28;20505;-70
2023/01/09 10:44:58;;;;;;;4.13;0.80;;;;;;;18.83;43.45;99738.13;4994098;28;20120;-70
2023/01/09 10:47:33;;;;;;;2.67;0.93;;;;;;;18.85;43.54;99738.00;4991300;28;20066;-70
2023/01/09 10:50:01;;;;;;;3.78;0.85;;;;;;;18.83;43.39;99738.13;4986614;28;20398;-69
2023/01/09 10:52:40;;;;;;;3.08;0.80;;;;;;;18.82;43.51;99739.09;4994440;28;20029;-69
2023/01/09 10:55:46;;;;;;;3.08;0.82;;;;;;;18.85;43.46;99752.03;4983453;28;20463;-69
2023/01/09 10:58:30;;;;;;;3.45;0.90;;;;;;;18.82;43.45;99751.50;4966480;28;20038;-69
2023/01/09 11:00:57;;;;;;;2.97;0.90;;;;;;;18.78;43.65;99747.50;4969420;28;20058;-70
2023/01/09 11:03:26;;;;;;;3.35;0.82;;;;;;;18.81;43.56;99749.81;4976560;28;20100;-73
2023/01/09 11:05:54;;;;;;;3.55;0.98;;;;;;;18.82;43.32;99754.13;4981803;28;20034;-72
2023/01/09 11:08:41;;;;;;;3.15;0.90;;;;;;;18.80;43.60;99762.19;4990677;28;20056;-70
2023/01/09 11:11:08;;;;;;;3.55;0.98;;;;;;;18.76;43.50;99758.19;5000553;28;20044;-70
2023/01/09 11:13:35;;;;;;;2.35;0.88;;;;;;;18.80;43.75;99759.56;4982590;28;20117;-69
2023/01/09 11:16:10;;;;;;;2.85;0.82;;;;;;;18.81;43.58;99755.09;4990167;28;20128;-68
2023/01/09 11:18:51;;;;;;;5.47;0.98;;;;;;;18.78;43.57;99758.88;4987917;28;20081;-70
2023/01/09 11:21:28;;;;;;;3.50;0.93;;;;;;;18.80;43.48;99759.56;4991986;28;20026;-69
2023/01/09 11:23:55;;;;;;;3.10;0.98;;;;;;;18.80;43.52;99761.34;4994223;28;20038;-71
2023/01/09 11:26:25;;;;;;;2.50;1.00;;;;;;;18.75;43.50;99764.47;4988461;28;20387;-72
2023/01/09 11:29:11;;;;;;;3.60;1.27;;;;;;;18.79;43.46;99771.09;4991972;28;20034;-70
2023/01/09 11:31:39;;;;;;;3.67;1.05;;;;;;;18.76;43.44;99771.41;4995740;28;20038;-70
2023/01/09 11:34:14;;;;;;;3.60;1.00;;;;;;;18.75;43.57;99772.38;5003634;28;20033;-75
2023/01/09 11:36:40;;;;;;;3.00;1.48;;;;;;;18.80;43.69;99790.38;4992750;28;20168;-69
2023/01/09 11:39:18;;;;;;;2.42;0.90;;;;;;;18.73;43.74;99784.91;4989660;28;20050;-70
2023/01/09 11:41:43;;;;;;;4.00;0.93;;;;;;;18.78;43.48;99793.19;4991997;28;20041;-70
2023/01/09 11:44:12;;;;;;;3.15;0.95;;;;;;;18.78;43.48;99792.38;4999073;28;20034;-70
2023/01/09 11:46:41;;;;;;;5.63;1.17;;;;;;;18.76;43.62;99794.34;4995732;28;20109;-70
2023/01/09 11:49:27;;;;;;;7.75;1.33;;;;;;;18.85;43.56;99801.38;4999837;28;20475;-70
2023/01/09 11:52:15;;;;;;;4.65;1.02;;;;;;;18.89;43.70;99809.78;4991032;28;20038;-69
2023/01/09 11:54:47;;;;;;;3.22;0.90;;;;;;;18.86;43.53;99800.38;5001393;28;20065;-68